CheckWX is a tool to help pilots better visualize weather data.  It is not intended as a substitute for an official pre-flight weather briefing.

12:18:55 UTC

UAKK TAF
Sary-Arka Airport
Karaganda, Kazakhstan
TAF UAKK 271700Z 2718/2818 05004MPS 9999 SCT030 SCT100 TX23/2810Z TN05/2723Z TEMPO 2802/2812 08005MPS BECMG 2812/2814 VRB02MPS

May-27@
18:00 UTC

May-27 @ 18:00 UTC

May-28@
12:00 UTC

May-28 @ 12:00 UTC

TAF UAKK 271700Z 2718/2818 05004MPS 9999 SCT030 SCT100 TX23/2810Z TN05/2723Z

Expired

Wind
  • 050° at 8 KTS
Cloud Levels
  • Scattered at 3,000' AGL
  • Scattered at 10,000' AGL

May-28@
02:00 UTC

May-28 @ 02:00 UTC

May-28@
12:00 UTC

May-28 @ 12:00 UTC

TEMPO 2802/2812 08005MPS

Expired

Wind
  • 080° at 10 KTS
Cloud Levels

May-28@
12:00 UTC

May-28 @ 12:00 UTC

May-28@
18:00 UTC

May-28 @ 18:00 UTC

BECMG 2812/2814 VRB02MPS

Becoming

Becoming Conditions expected by Thu, May 28, 2020 @ 14:00 UTC

Wind
  • Variable at 4 KTS
Cloud Levels
  • Scattered at 3,000' AGL
  • Scattered at 10,000' AGL